sensor_id;sensor_type;location;lat;lon;timestamp;P1;durP1;ratioP1;P2;durP2;ratioP2
63259;SDS011;49390;51.380;0.098;2022-12-07T00:01:45;18.30;;;7.28;;
63259;SDS011;49390;51.380;0.098;2022-12-07T00:04:14;17.23;;;7.55;;
63259;SDS011;49390;51.380;0.098;2022-12-07T00:06:45;16.23;;;7.87;;
63259;SDS011;49390;51.380;0.098;2022-12-07T00:09:17;20.20;;;8.43;;
63259;SDS011;49390;51.380;0.098;2022-12-07T00:11:48;20.88;;;7.90;;
63259;SDS011;49390;51.380;0.098;2022-12-07T00:14:18;19.38;;;8.00;;
63259;SDS011;49390;51.380;0.098;2022-12-07T00:16:51;17.48;;;7.57;;
63259;SDS011;49390;51.380;0.098;2022-12-07T00:19:22;20.45;;;7.32;;
63259;SDS011;49390;51.380;0.098;2022-12-07T00:21:50;19.40;;;7.28;;
63259;SDS011;49390;51.380;0.098;2022-12-07T00:24:18;25.30;;;8.15;;
63259;SDS011;49390;51.380;0.098;2022-12-07T00:26:47;17.90;;;7.35;;
63259;SDS011;49390;51.380;0.098;2022-12-07T00:29:18;15.87;;;6.83;;
63259;SDS011;49390;51.380;0.098;2022-12-07T00:31:48;22.35;;;7.65;;
63259;SDS011;49390;51.380;0.098;2022-12-07T00:34:18;12.93;;;6.43;;
63259;SDS011;49390;51.380;0.098;2022-12-07T00:36:48;19.58;;;7.90;;
63259;SDS011;49390;51.380;0.098;2022-12-07T00:39:17;20.25;;;7.55;;
63259;SDS011;49390;51.380;0.098;2022-12-07T00:41:45;19.15;;;7.70;;
63259;SDS011;49390;51.380;0.098;2022-12-07T00:44:13;18.77;;;6.80;;
63259;SDS011;49390;51.380;0.098;2022-12-07T00:46:41;16.70;;;7.60;;
63259;SDS011;49390;51.380;0.098;2022-12-07T00:49:09;17.70;;;7.20;;
63259;SDS011;49390;51.380;0.098;2022-12-07T00:51:37;16.20;;;6.95;;
63259;SDS011;49390;51.380;0.098;2022-12-07T00:54:05;17.23;;;7.57;;
63259;SDS011;49390;51.380;0.098;2022-12-07T00:56:33;18.15;;;7.38;;
63259;SDS011;49390;51.380;0.098;2022-12-07T00:59:03;20.90;;;7.63;;
63259;SDS011;49390;51.380;0.098;2022-12-07T01:01:34;22.45;;;8.20;;
63259;SDS011;49390;51.380;0.098;2022-12-07T01:04:04;15.50;;;7.10;;
63259;SDS011;49390;51.380;0.098;2022-12-07T01:06:33;16.52;;;7.50;;
63259;SDS011;49390;51.380;0.098;2022-12-07T01:09:02;13.68;;;6.70;;
63259;SDS011;49390;51.380;0.098;2022-12-07T01:11:32;13.18;;;7.00;;
63259;SDS011;49390;51.380;0.098;2022-12-07T01:14:03;16.73;;;7.15;;
63259;SDS011;49390;51.380;0.098;2022-12-07T01:16:32;15.70;;;7.25;;
63259;SDS011;49390;51.380;0.098;2022-12-07T01:19:01;20.00;;;8.00;;
63259;SDS011;49390;51.380;0.098;2022-12-07T01:21:32;18.40;;;8.27;;
63259;SDS011;49390;51.380;0.098;2022-12-07T01:26:33;15.30;;;6.82;;
63259;SDS011;49390;51.380;0.098;2022-12-07T01:29:01;17.40;;;7.07;;
63259;SDS011;49390;51.380;0.098;2022-12-07T01:31:30;19.00;;;7.45;;
63259;SDS011;49390;51.380;0.098;2022-12-07T01:33:59;19.75;;;7.70;;
63259;SDS011;49390;51.380;0.098;2022-12-07T01:36:29;17.65;;;7.68;;
63259;SDS011;49390;51.380;0.098;2022-12-07T01:39:01;19.33;;;7.78;;
63259;SDS011;49390;51.380;0.098;2022-12-07T01:41:33;13.38;;;7.28;;
63259;SDS011;49390;51.380;0.098;2022-12-07T01:46:53;18.83;;;7.32;;
63259;SDS011;49390;51.380;0.098;2022-12-07T01:52:21;14.65;;;7.45;;
63259;SDS011;49390;51.380;0.098;2022-12-07T01:54:53;16.17;;;6.90;;
63259;SDS011;49390;51.380;0.098;2022-12-07T01:57:25;17.08;;;7.38;;
63259;SDS011;49390;51.380;0.098;2022-12-07T01:59:54;17.70;;;8.10;;
63259;SDS011;49390;51.380;0.098;2022-12-07T02:02:31;17.30;;;7.00;;
63259;SDS011;49390;51.380;0.098;2022-12-07T02:05:03;15.68;;;7.30;;
63259;SDS011;49390;51.380;0.098;2022-12-07T02:07:36;18.70;;;8.25;;
63259;SDS011;49390;51.380;0.098;2022-12-07T02:12:45;17.90;;;6.90;;
63259;SDS011;49390;51.380;0.098;2022-12-07T02:15:18;17.70;;;7.65;;
63259;SDS011;49390;51.380;0.098;2022-12-07T02:17:51;19.08;;;7.70;;
63259;SDS011;49390;51.380;0.098;2022-12-07T02:20:44;18.80;;;7.05;;
63259;SDS011;49390;51.380;0.098;2022-12-07T02:23:33;17.02;;;7.00;;
63259;SDS011;49390;51.380;0.098;2022-12-07T02:29:21;15.95;;;7.75;;
63259;SDS011;49390;51.380;0.098;2022-12-07T02:32:10;20.80;;;7.47;;
63259;SDS011;49390;51.380;0.098;2022-12-07T02:35:05;18.58;;;7.75;;
63259;SDS011;49390;51.380;0.098;2022-12-07T02:40:14;15.82;;;6.78;;
63259;SDS011;49390;51.380;0.098;2022-12-07T02:45:46;16.95;;;6.72;;
63259;SDS011;49390;51.380;0.098;2022-12-07T02:48:16;20.33;;;7.78;;
63259;SDS011;49390;51.380;0.098;2022-12-07T02:50:50;16.73;;;6.55;;
63259;SDS011;49390;51.380;0.098;2022-12-07T02:55:56;14.27;;;6.75;;
63259;SDS011;49390;51.380;0.098;2022-12-07T02:58:32;19.67;;;7.20;;
63259;SDS011;49390;51.380;0.098;2022-12-07T03:01:28;17.10;;;6.82;;
63259;SDS011;49390;51.380;0.098;2022-12-07T03:07:04;17.73;;;7.00;;
63259;SDS011;49390;51.380;0.098;2022-12-07T03:12:29;17.25;;;7.18;;
63259;SDS011;49390;51.380;0.098;2022-12-07T03:15:05;17.08;;;7.78;;
63259;SDS011;49390;51.380;0.098;2022-12-07T03:17:39;16.52;;;7.38;;
63259;SDS011;49390;51.380;0.098;2022-12-07T03:20:13;20.40;;;7.90;;
63259;SDS011;49390;51.380;0.098;2022-12-07T03:22:46;20.80;;;8.45;;
63259;SDS011;49390;51.380;0.098;2022-12-07T03:25:16;16.95;;;7.40;;
63259;SDS011;49390;51.380;0.098;2022-12-07T03:27:57;19.05;;;7.72;;
63259;SDS011;49390;51.380;0.098;2022-12-07T03:30:41;18.38;;;7.95;;
63259;SDS011;49390;51.380;0.098;2022-12-07T03:33:15;22.17;;;7.75;;
63259;SDS011;49390;51.380;0.098;2022-12-07T03:36:20;15.18;;;7.43;;
63259;SDS011;49390;51.380;0.098;2022-12-07T03:39:06;17.33;;;6.95;;
63259;SDS011;49390;51.380;0.098;2022-12-07T03:41:36;16.95;;;6.95;;
63259;SDS011;49390;51.380;0.098;2022-12-07T03:44:11;19.20;;;8.00;;
63259;SDS011;49390;51.380;0.098;2022-12-07T03:46:43;22.85;;;7.65;;
63259;SDS011;49390;51.380;0.098;2022-12-07T03:49:43;24.30;;;8.10;;
63259;SDS011;49390;51.380;0.098;2022-12-07T03:58:03;18.38;;;8.52;;
63259;SDS011;49390;51.380;0.098;2022-12-07T04:00:33;17.63;;;7.32;;
63259;SDS011;49390;51.380;0.098;2022-12-07T04:03:02;16.25;;;7.68;;
63259;SDS011;49390;51.380;0.098;2022-12-07T04:05:30;16.23;;;6.28;;
63259;SDS011;49390;51.380;0.098;2022-12-07T04:08:01;17.13;;;7.70;;
63259;SDS011;49390;51.380;0.098;2022-12-07T04:10:29;19.15;;;7.97;;
63259;SDS011;49390;51.380;0.098;2022-12-07T04:12:57;13.30;;;6.78;;
63259;SDS011;49390;51.380;0.098;2022-12-07T04:15:25;16.85;;;6.78;;
63259;SDS011;49390;51.380;0.098;2022-12-07T04:17:53;17.98;;;7.45;;
63259;SDS011;49390;51.380;0.098;2022-12-07T04:20:22;18.13;;;7.55;;
63259;SDS011;49390;51.380;0.098;2022-12-07T04:22:50;16.40;;;7.95;;
63259;SDS011;49390;51.380;0.098;2022-12-07T04:25:18;16.23;;;7.68;;
63259;SDS011;49390;51.380;0.098;2022-12-07T04:27:46;17.75;;;7.80;;
63259;SDS011;49390;51.380;0.098;2022-12-07T04:30:14;20.67;;;7.63;;
63259;SDS011;49390;51.380;0.098;2022-12-07T04:32:45;19.17;;;7.57;;
63259;SDS011;49390;51.380;0.098;2022-12-07T04:35:15;19.73;;;7.60;;
63259;SDS011;49390;51.380;0.098;2022-12-07T04:37:46;15.85;;;7.45;;
63259;SDS011;49390;51.380;0.098;2022-12-07T04:40:14;22.30;;;8.20;;
63259;SDS011;49390;51.380;0.098;2022-12-07T04:42:43;16.40;;;7.13;;
63259;SDS011;49390;51.380;0.098;2022-12-07T04:45:11;17.00;;;7.03;;
63259;SDS011;49390;51.380;0.098;2022-12-07T04:47:41;17.05;;;8.02;;
63259;SDS011;49390;51.380;0.098;2022-12-07T04:50:09;20.30;;;7.47;;
63259;SDS011;49390;51.380;0.098;2022-12-07T04:52:38;17.95;;;7.68;;
63259;SDS011;49390;51.380;0.098;2022-12-07T04:55:07;14.45;;;6.72;;
63259;SDS011;49390;51.380;0.098;2022-12-07T04:57:35;15.07;;;6.70;;
63259;SDS011;49390;51.380;0.098;2022-12-07T05:00:03;18.90;;;7.32;;
63259;SDS011;49390;51.380;0.098;2022-12-07T05:02:33;15.07;;;6.97;;
63259;SDS011;49390;51.380;0.098;2022-12-07T05:05:03;15.77;;;6.55;;
63259;SDS011;49390;51.380;0.098;2022-12-07T05:07:31;14.15;;;6.28;;
63259;SDS011;49390;51.380;0.098;2022-12-07T05:09:59;16.55;;;6.55;;
63259;SDS011;49390;51.380;0.098;2022-12-07T05:12:28;15.55;;;6.78;;
63259;SDS011;49390;51.380;0.098;2022-12-07T05:14:55;16.10;;;7.20;;
63259;SDS011;49390;51.380;0.098;2022-12-07T05:17:23;16.38;;;7.20;;
63259;SDS011;49390;51.380;0.098;2022-12-07T05:19:51;15.82;;;6.85;;
63259;SDS011;49390;51.380;0.098;2022-12-07T05:22:19;16.60;;;7.07;;
63259;SDS011;49390;51.380;0.098;2022-12-07T05:24:48;20.13;;;7.05;;
63259;SDS011;49390;51.380;0.098;2022-12-07T05:27:17;18.45;;;7.18;;
63259;SDS011;49390;51.380;0.098;2022-12-07T05:29:45;15.55;;;7.60;;
63259;SDS011;49390;51.380;0.098;2022-12-07T05:32:13;14.48;;;6.50;;
63259;SDS011;49390;51.380;0.098;2022-12-07T05:34:42;16.98;;;7.05;;
63259;SDS011;49390;51.380;0.098;2022-12-07T05:37:10;18.48;;;6.82;;
63259;SDS011;49390;51.380;0.098;2022-12-07T05:39:39;20.90;;;8.55;;
63259;SDS011;49390;51.380;0.098;2022-12-07T05:42:10;13.20;;;6.68;;
63259;SDS011;49390;51.380;0.098;2022-12-07T05:44:45;16.95;;;6.50;;
63259;SDS011;49390;51.380;0.098;2022-12-07T05:47:14;13.45;;;6.40;;
63259;SDS011;49390;51.380;0.098;2022-12-07T05:49:42;16.42;;;6.45;;
63259;SDS011;49390;51.380;0.098;2022-12-07T05:52:11;16.10;;;6.38;;
63259;SDS011;49390;51.380;0.098;2022-12-07T05:54:41;16.40;;;6.70;;
63259;SDS011;49390;51.380;0.098;2022-12-07T05:57:10;16.45;;;6.50;;
63259;SDS011;49390;51.380;0.098;2022-12-07T05:59:38;15.80;;;6.50;;
63259;SDS011;49390;51.380;0.098;2022-12-07T06:02:08;13.48;;;6.15;;
63259;SDS011;49390;51.380;0.098;2022-12-07T06:04:39;15.60;;;6.72;;
63259;SDS011;49390;51.380;0.098;2022-12-07T06:07:09;14.13;;;6.37;;
63259;SDS011;49390;51.380;0.098;2022-12-07T06:09:39;15.15;;;6.55;;
63259;SDS011;49390;51.380;0.098;2022-12-07T06:12:09;15.07;;;6.90;;
63259;SDS011;49390;51.380;0.098;2022-12-07T06:14:57;15.00;;;6.55;;
63259;SDS011;49390;51.380;0.098;2022-12-07T06:17:25;13.63;;;6.10;;
63259;SDS011;49390;51.380;0.098;2022-12-07T06:19:54;14.65;;;5.90;;
63259;SDS011;49390;51.380;0.098;2022-12-07T06:22:22;12.75;;;5.45;;
63259;SDS011;49390;51.380;0.098;2022-12-07T06:24:51;16.70;;;6.25;;
63259;SDS011;49390;51.380;0.098;2022-12-07T06:27:21;15.80;;;5.95;;
63259;SDS011;49390;51.380;0.098;2022-12-07T06:29:49;10.98;;;5.70;;
63259;SDS011;49390;51.380;0.098;2022-12-07T06:32:18;14.25;;;5.82;;
63259;SDS011;49390;51.380;0.098;2022-12-07T06:34:45;14.93;;;6.20;;
63259;SDS011;49390;51.380;0.098;2022-12-07T06:37:15;14.02;;;6.32;;
63259;SDS011;49390;51.380;0.098;2022-12-07T06:39:43;15.82;;;5.90;;
63259;SDS011;49390;51.380;0.098;2022-12-07T06:42:12;17.33;;;5.57;;
63259;SDS011;49390;51.380;0.098;2022-12-07T06:44:40;13.90;;;6.05;;
63259;SDS011;49390;51.380;0.098;2022-12-07T06:47:08;12.00;;;6.40;;
63259;SDS011;49390;51.380;0.098;2022-12-07T06:50:02;20.15;;;6.25;;
63259;SDS011;49390;51.380;0.098;2022-12-07T06:52:32;13.35;;;6.78;;
63259;SDS011;49390;51.380;0.098;2022-12-07T06:55:00;12.40;;;5.30;;
63259;SDS011;49390;51.380;0.098;2022-12-07T06:57:29;14.25;;;5.60;;
63259;SDS011;49390;51.380;0.098;2022-12-07T06:59:58;18.80;;;6.13;;
63259;SDS011;49390;51.380;0.098;2022-12-07T07:02:27;13.18;;;7.07;;
63259;SDS011;49390;51.380;0.098;2022-12-07T07:04:55;14.15;;;6.10;;
63259;SDS011;49390;51.380;0.098;2022-12-07T07:07:24;12.82;;;5.95;;
63259;SDS011;49390;51.380;0.098;2022-12-07T07:09:52;15.30;;;6.05;;
63259;SDS011;49390;51.380;0.098;2022-12-07T07:12:21;15.20;;;6.35;;
63259;SDS011;49390;51.380;0.098;2022-12-07T07:14:49;12.18;;;5.90;;
63259;SDS011;49390;51.380;0.098;2022-12-07T07:17:17;14.40;;;5.72;;
63259;SDS011;49390;51.380;0.098;2022-12-07T07:19:46;14.65;;;5.80;;
63259;SDS011;49390;51.380;0.098;2022-12-07T07:22:14;15.05;;;6.22;;
63259;SDS011;49390;51.380;0.098;2022-12-07T07:24:42;14.60;;;6.43;;
63259;SDS011;49390;51.380;0.098;2022-12-07T07:27:11;12.55;;;5.50;;
63259;SDS011;49390;51.380;0.098;2022-12-07T07:29:42;14.20;;;6.20;;
63259;SDS011;49390;51.380;0.098;2022-12-07T07:32:10;13.98;;;5.95;;
63259;SDS011;49390;51.380;0.098;2022-12-07T07:34:39;16.60;;;6.47;;
63259;SDS011;49390;51.380;0.098;2022-12-07T07:37:07;13.93;;;6.28;;
63259;SDS011;49390;51.380;0.098;2022-12-07T07:39:35;13.48;;;5.57;;
63259;SDS011;49390;51.380;0.098;2022-12-07T07:42:04;12.73;;;5.45;;
63259;SDS011;49390;51.380;0.098;2022-12-07T07:44:33;11.40;;;5.30;;
63259;SDS011;49390;51.380;0.098;2022-12-07T07:47:02;11.23;;;5.32;;
63259;SDS011;49390;51.380;0.098;2022-12-07T07:49:30;15.38;;;5.55;;
63259;SDS011;49390;51.380;0.098;2022-12-07T07:52:05;12.82;;;5.80;;
63259;SDS011;49390;51.380;0.098;2022-12-07T07:54:34;10.88;;;5.10;;
63259;SDS011;49390;51.380;0.098;2022-12-07T07:57:03;11.15;;;5.45;;
63259;SDS011;49390;51.380;0.098;2022-12-07T07:59:32;11.30;;;5.75;;
63259;SDS011;49390;51.380;0.098;2022-12-07T08:02:01;15.13;;;5.97;;
63259;SDS011;49390;51.380;0.098;2022-12-07T08:04:29;12.93;;;5.07;;
63259;SDS011;49390;51.380;0.098;2022-12-07T08:06:57;13.00;;;5.65;;
63259;SDS011;49390;51.380;0.098;2022-12-07T08:09:25;14.32;;;6.30;;
63259;SDS011;49390;51.380;0.098;2022-12-07T08:11:54;14.80;;;6.18;;
63259;SDS011;49390;51.380;0.098;2022-12-07T08:14:22;12.18;;;5.75;;
63259;SDS011;49390;51.380;0.098;2022-12-07T08:16:51;12.30;;;6.18;;
63259;SDS011;49390;51.380;0.098;2022-12-07T08:19:19;12.73;;;6.68;;
63259;SDS011;49390;51.380;0.098;2022-12-07T08:21:49;17.10;;;7.22;;
63259;SDS011;49390;51.380;0.098;2022-12-07T08:24:20;14.82;;;6.47;;
63259;SDS011;49390;51.380;0.098;2022-12-07T08:26:48;16.77;;;6.57;;
63259;SDS011;49390;51.380;0.098;2022-12-07T08:29:18;14.00;;;6.60;;
63259;SDS011;49390;51.380;0.098;2022-12-07T08:31:47;14.65;;;6.32;;
63259;SDS011;49390;51.380;0.098;2022-12-07T08:34:14;10.98;;;5.78;;
63259;SDS011;49390;51.380;0.098;2022-12-07T08:36:43;16.48;;;6.63;;
63259;SDS011;49390;51.380;0.098;2022-12-07T08:39:12;15.50;;;6.15;;
63259;SDS011;49390;51.380;0.098;2022-12-07T08:41:58;22.50;;;6.88;;
63259;SDS011;49390;51.380;0.098;2022-12-07T08:44:26;13.90;;;5.82;;
63259;SDS011;49390;51.380;0.098;2022-12-07T08:46:58;17.63;;;7.25;;
63259;SDS011;49390;51.380;0.098;2022-12-07T08:49:36;15.68;;;6.60;;
63259;SDS011;49390;51.380;0.098;2022-12-07T08:52:08;14.43;;;6.35;;
63259;SDS011;49390;51.380;0.098;2022-12-07T08:54:36;12.40;;;6.03;;
63259;SDS011;49390;51.380;0.098;2022-12-07T08:57:07;16.50;;;6.47;;
63259;SDS011;49390;51.380;0.098;2022-12-07T08:59:36;14.20;;;6.90;;
63259;SDS011;49390;51.380;0.098;2022-12-07T09:02:05;11.77;;;6.13;;
63259;SDS011;49390;51.380;0.098;2022-12-07T09:04:34;14.77;;;6.45;;
63259;SDS011;49390;51.380;0.098;2022-12-07T09:07:03;13.50;;;6.53;;
63259;SDS011;49390;51.380;0.098;2022-12-07T09:09:34;14.63;;;6.15;;
63259;SDS011;49390;51.380;0.098;2022-12-07T09:12:02;13.45;;;5.70;;
63259;SDS011;49390;51.380;0.098;2022-12-07T09:14:31;15.13;;;6.13;;
63259;SDS011;49390;51.380;0.098;2022-12-07T09:17:09;13.32;;;5.63;;
63259;SDS011;49390;51.380;0.098;2022-12-07T09:19:41;12.95;;;6.28;;
63259;SDS011;49390;51.380;0.098;2022-12-07T09:22:11;13.53;;;5.37;;
63259;SDS011;49390;51.380;0.098;2022-12-07T09:24:40;13.07;;;5.43;;
63259;SDS011;49390;51.380;0.098;2022-12-07T09:27:08;9.82;;;5.07;;
63259;SDS011;49390;51.380;0.098;2022-12-07T09:29:36;17.27;;;5.75;;
63259;SDS011;49390;51.380;0.098;2022-12-07T09:32:05;11.75;;;5.75;;
63259;SDS011;49390;51.380;0.098;2022-12-07T09:34:37;12.50;;;5.82;;
63259;SDS011;49390;51.380;0.098;2022-12-07T09:37:06;11.32;;;5.43;;
63259;SDS011;49390;51.380;0.098;2022-12-07T09:39:34;12.82;;;5.05;;
63259;SDS011;49390;51.380;0.098;2022-12-07T09:42:24;14.20;;;6.93;;
63259;SDS011;49390;51.380;0.098;2022-12-07T09:45:34;9.50;;;5.55;;
63259;SDS011;49390;51.380;0.098;2022-12-07T09:50:26;14.85;;;6.20;;
63259;SDS011;49390;51.380;0.098;2022-12-07T09:53:01;12.27;;;5.65;;
63259;SDS011;49390;51.380;0.098;2022-12-07T09:55:43;18.20;;;7.65;;
63259;SDS011;49390;51.380;0.098;2022-12-07T09:58:17;13.32;;;5.95;;
63259;SDS011;49390;51.380;0.098;2022-12-07T10:00:53;14.07;;;5.72;;
63259;SDS011;49390;51.380;0.098;2022-12-07T10:03:27;13.85;;;5.63;;
63259;SDS011;49390;51.380;0.098;2022-12-07T10:05:56;12.07;;;5.25;;
63259;SDS011;49390;51.380;0.098;2022-12-07T10:08:25;10.30;;;5.40;;
63259;SDS011;49390;51.380;0.098;2022-12-07T10:10:56;12.18;;;5.13;;
63259;SDS011;49390;51.380;0.098;2022-12-07T10:13:36;13.43;;;5.38;;
63259;SDS011;49390;51.380;0.098;2022-12-07T10:16:21;13.82;;;6.28;;
63259;SDS011;49390;51.380;0.098;2022-12-07T10:19:17;13.38;;;5.07;;
63259;SDS011;49390;51.380;0.098;2022-12-07T10:24:31;11.30;;;4.90;;
63259;SDS011;49390;51.380;0.098;2022-12-07T10:27:02;10.93;;;5.50;;
63259;SDS011;49390;51.380;0.098;2022-12-07T10:29:32;12.63;;;5.95;;
63259;SDS011;49390;51.380;0.098;2022-12-07T10:34:44;13.48;;;5.45;;
63259;SDS011;49390;51.380;0.098;2022-12-07T10:37:28;17.95;;;6.25;;
63259;SDS011;49390;51.380;0.098;2022-12-07T10:39:58;14.40;;;5.93;;
63259;SDS011;49390;51.380;0.098;2022-12-07T10:42:27;14.80;;;5.95;;
63259;SDS011;49390;51.380;0.098;2022-12-07T10:45:14;13.65;;;6.57;;
63259;SDS011;49390;51.380;0.098;2022-12-07T11:05:02;16.20;;;6.28;;
63259;SDS011;49390;51.380;0.098;2022-12-07T11:10:35;13.93;;;5.93;;
63259;SDS011;49390;51.380;0.098;2022-12-07T11:13:23;14.57;;;6.00;;
63259;SDS011;49390;51.380;0.098;2022-12-07T11:24:16;12.75;;;5.70;;
63259;SDS011;49390;51.380;0.098;2022-12-07T11:38:07;15.00;;;6.15;;
63259;SDS011;49390;51.380;0.098;2022-12-07T11:40:54;15.55;;;5.97;;
63259;SDS011;49390;51.380;0.098;2022-12-07T11:43:50;13.45;;;5.97;;
63259;SDS011;49390;51.380;0.098;2022-12-07T11:49:21;14.27;;;6.60;;
63259;SDS011;49390;51.380;0.098;2022-12-07T11:52:04;15.32;;;5.88;;
63259;SDS011;49390;51.380;0.098;2022-12-07T11:54:40;13.93;;;7.10;;
63259;SDS011;49390;51.380;0.098;2022-12-07T11:57:12;14.77;;;6.18;;
63259;SDS011;49390;51.380;0.098;2022-12-07T11:59:57;13.25;;;6.55;;
63259;SDS011;49390;51.380;0.098;2022-12-07T12:02:36;18.48;;;7.93;;
63259;SDS011;49390;51.380;0.098;2022-12-07T12:07:46;15.57;;;7.00;;
63259;SDS011;49390;51.380;0.098;2022-12-07T12:22:15;13.05;;;6.57;;
63259;SDS011;49390;51.380;0.098;2022-12-07T12:24:49;11.98;;;6.43;;
63259;SDS011;49390;51.380;0.098;2022-12-07T12:27:23;13.88;;;6.80;;
63259;SDS011;49390;51.380;0.098;2022-12-07T12:29:57;13.05;;;6.18;;
63259;SDS011;49390;51.380;0.098;2022-12-07T12:32:38;11.85;;;5.90;;
63259;SDS011;49390;51.380;0.098;2022-12-07T12:40:49;13.25;;;6.80;;
63259;SDS011;49390;51.380;0.098;2022-12-07T12:51:44;15.48;;;7.30;;
63259;SDS011;49390;51.380;0.098;2022-12-07T12:56:52;13.48;;;7.07;;
63259;SDS011;49390;51.380;0.098;2022-12-07T13:04:55;14.35;;;7.35;;
63259;SDS011;49390;51.380;0.098;2022-12-07T13:21:41;16.00;;;7.07;;
63259;SDS011;49390;51.380;0.098;2022-12-07T13:29:15;12.95;;;6.25;;
63259;SDS011;49390;51.380;0.098;2022-12-07T13:31:55;14.75;;;6.07;;
63259;SDS011;49390;51.380;0.098;2022-12-07T13:34:37;13.23;;;6.63;;
63259;SDS011;49390;51.380;0.098;2022-12-07T13:39:49;15.35;;;5.53;;
63259;SDS011;49390;51.380;0.098;2022-12-07T13:42:29;13.25;;;6.70;;
63259;SDS011;49390;51.380;0.098;2022-12-07T13:44:59;15.82;;;7.00;;
63259;SDS011;49390;51.380;0.098;2022-12-07T13:47:46;12.25;;;6.15;;
63259;SDS011;49390;51.380;0.098;2022-12-07T13:50:23;14.55;;;6.20;;
63259;SDS011;49390;51.380;0.098;2022-12-07T13:52:59;11.13;;;6.00;;
63259;SDS011;49390;51.380;0.098;2022-12-07T13:55:29;12.93;;;5.38;;
63259;SDS011;49390;51.380;0.098;2022-12-07T13:57:57;11.38;;;5.43;;
63259;SDS011;49390;51.380;0.098;2022-12-07T14:00:26;15.40;;;6.03;;
63259;SDS011;49390;51.380;0.098;2022-12-07T14:03:03;11.35;;;5.88;;
63259;SDS011;49390;51.380;0.098;2022-12-07T14:06:02;12.90;;;6.75;;
63259;SDS011;49390;51.380;0.098;2022-12-07T14:08:33;13.32;;;5.85;;
63259;SDS011;49390;51.380;0.098;2022-12-07T14:11:01;13.63;;;6.47;;
63259;SDS011;49390;51.380;0.098;2022-12-07T14:13:33;12.75;;;5.55;;
63259;SDS011;49390;51.380;0.098;2022-12-07T14:16:22;12.68;;;5.63;;
63259;SDS011;49390;51.380;0.098;2022-12-07T14:18:59;14.63;;;5.30;;
63259;SDS011;49390;51.380;0.098;2022-12-07T14:21:31;13.65;;;5.60;;
63259;SDS011;49390;51.380;0.098;2022-12-07T14:24:17;13.50;;;5.70;;
63259;SDS011;49390;51.380;0.098;2022-12-07T14:26:49;11.00;;;5.28;;
63259;SDS011;49390;51.380;0.098;2022-12-07T14:32:19;10.55;;;4.95;;
63259;SDS011;49390;51.380;0.098;2022-12-07T14:35:07;10.35;;;4.68;;
63259;SDS011;49390;51.380;0.098;2022-12-07T14:37:38;9.75;;;4.85;;
63259;SDS011;49390;51.380;0.098;2022-12-07T14:40:12;10.18;;;4.78;;
63259;SDS011;49390;51.380;0.098;2022-12-07T14:42:42;12.50;;;5.10;;
63259;SDS011;49390;51.380;0.098;2022-12-07T14:45:14;9.90;;;5.45;;
63259;SDS011;49390;51.380;0.098;2022-12-07T14:47:44;9.18;;;4.63;;
63259;SDS011;49390;51.380;0.098;2022-12-07T14:50:35;11.93;;;4.90;;
63259;SDS011;49390;51.380;0.098;2022-12-07T14:53:29;11.65;;;4.80;;
63259;SDS011;49390;51.380;0.098;2022-12-07T14:56:24;10.80;;;5.05;;
63259;SDS011;49390;51.380;0.098;2022-12-07T14:58:55;10.68;;;4.80;;
63259;SDS011;49390;51.380;0.098;2022-12-07T15:01:23;11.13;;;4.90;;
63259;SDS011;49390;51.380;0.098;2022-12-07T15:03:51;9.60;;;5.10;;
63259;SDS011;49390;51.380;0.098;2022-12-07T15:06:22;12.13;;;5.30;;
63259;SDS011;49390;51.380;0.098;2022-12-07T15:08:50;11.80;;;5.85;;
63259;SDS011;49390;51.380;0.098;2022-12-07T15:11:18;11.85;;;5.38;;
63259;SDS011;49390;51.380;0.098;2022-12-07T15:13:49;16.23;;;5.60;;
63259;SDS011;49390;51.380;0.098;2022-12-07T15:16:36;11.13;;;5.20;;
63259;SDS011;49390;51.380;0.098;2022-12-07T15:19:27;13.57;;;5.88;;
63259;SDS011;49390;51.380;0.098;2022-12-07T15:21:57;11.15;;;5.80;;
63259;SDS011;49390;51.380;0.098;2022-12-07T15:24:28;14.30;;;6.40;;
63259;SDS011;49390;51.380;0.098;2022-12-07T15:26:57;12.30;;;6.20;;
63259;SDS011;49390;51.380;0.098;2022-12-07T15:29:25;11.13;;;6.05;;
63259;SDS011;49390;51.380;0.098;2022-12-07T15:31:56;12.55;;;5.97;;
63259;SDS011;49390;51.380;0.098;2022-12-07T15:34:26;10.27;;;5.35;;
63259;SDS011;49390;51.380;0.098;2022-12-07T15:37:04;10.43;;;5.63;;
63259;SDS011;49390;51.380;0.098;2022-12-07T15:39:34;14.00;;;6.50;;
63259;SDS011;49390;51.380;0.098;2022-12-07T15:42:06;12.38;;;5.40;;
63259;SDS011;49390;51.380;0.098;2022-12-07T15:44:34;11.70;;;6.38;;
63259;SDS011;49390;51.380;0.098;2022-12-07T15:47:22;10.32;;;5.78;;
63259;SDS011;49390;51.380;0.098;2022-12-07T15:49:51;12.80;;;5.90;;
63259;SDS011;49390;51.380;0.098;2022-12-07T15:52:19;13.07;;;6.85;;
63259;SDS011;49390;51.380;0.098;2022-12-07T15:54:47;13.50;;;7.25;;
63259;SDS011;49390;51.380;0.098;2022-12-07T15:57:15;13.68;;;7.43;;
63259;SDS011;49390;51.380;0.098;2022-12-07T15:59:51;12.63;;;6.90;;
63259;SDS011;49390;51.380;0.098;2022-12-07T16:02:19;13.32;;;7.15;;
63259;SDS011;49390;51.380;0.098;2022-12-07T16:04:48;14.25;;;7.40;;
63259;SDS011;49390;51.380;0.098;2022-12-07T16:09:41;20.10;;;9.25;;
63259;SDS011;49390;51.380;0.098;2022-12-07T16:12:11;30.33;;;14.60;;
63259;SDS011;49390;51.380;0.098;2022-12-07T16:14:40;34.75;;;17.63;;
63259;SDS011;49390;51.380;0.098;2022-12-07T16:17:11;30.00;;;15.15;;
63259;SDS011;49390;51.380;0.098;2022-12-07T16:19:39;28.75;;;13.73;;
63259;SDS011;49390;51.380;0.098;2022-12-07T16:22:07;24.50;;;12.25;;
63259;SDS011;49390;51.380;0.098;2022-12-07T16:24:36;29.17;;;13.40;;
63259;SDS011;49390;51.380;0.098;2022-12-07T16:27:05;28.35;;;13.65;;
63259;SDS011;49390;51.380;0.098;2022-12-07T16:29:33;33.20;;;14.95;;
63259;SDS011;49390;51.380;0.098;2022-12-07T16:32:01;32.00;;;14.40;;
63259;SDS011;49390;51.380;0.098;2022-12-07T16:34:30;35.33;;;16.50;;
63259;SDS011;49390;51.380;0.098;2022-12-07T16:36:58;38.85;;;16.20;;
63259;SDS011;49390;51.380;0.098;2022-12-07T16:39:32;31.30;;;13.68;;
63259;SDS011;49390;51.380;0.098;2022-12-07T16:42:01;27.02;;;13.20;;
63259;SDS011;49390;51.380;0.098;2022-12-07T16:44:29;25.15;;;12.25;;
63259;SDS011;49390;51.380;0.098;2022-12-07T16:46:59;23.13;;;11.07;;
63259;SDS011;49390;51.380;0.098;2022-12-07T16:49:28;22.42;;;10.52;;
63259;SDS011;49390;51.380;0.098;2022-12-07T16:51:57;20.20;;;9.52;;
63259;SDS011;49390;51.380;0.098;2022-12-07T16:54:44;24.40;;;10.02;;
63259;SDS011;49390;51.380;0.098;2022-12-07T16:57:14;25.15;;;10.85;;
63259;SDS011;49390;51.380;0.098;2022-12-07T16:59:50;21.20;;;10.07;;
63259;SDS011;49390;51.380;0.098;2022-12-07T17:02:19;19.08;;;9.93;;
63259;SDS011;49390;51.380;0.098;2022-12-07T17:04:48;18.58;;;9.43;;
63259;SDS011;49390;51.380;0.098;2022-12-07T17:07:17;19.77;;;10.63;;
63259;SDS011;49390;51.380;0.098;2022-12-07T17:09:45;21.60;;;10.88;;
63259;SDS011;49390;51.380;0.098;2022-12-07T17:12:16;21.77;;;10.45;;
63259;SDS011;49390;51.380;0.098;2022-12-07T17:17:32;18.65;;;9.40;;
63259;SDS011;49390;51.380;0.098;2022-12-07T17:20:00;17.95;;;9.45;;
63259;SDS011;49390;51.380;0.098;2022-12-07T17:22:29;16.38;;;9.30;;
63259;SDS011;49390;51.380;0.098;2022-12-07T17:24:57;17.63;;;8.68;;
63259;SDS011;49390;51.380;0.098;2022-12-07T17:27:29;16.42;;;8.20;;
63259;SDS011;49390;51.380;0.098;2022-12-07T17:29:57;17.33;;;8.85;;
63259;SDS011;49390;51.380;0.098;2022-12-07T17:32:26;15.95;;;8.88;;
63259;SDS011;49390;51.380;0.098;2022-12-07T17:34:54;15.68;;;8.35;;